Logo

Informe meteorológico de datos medios para el día en curso

  • Compartir en Google Plus
  • Compartir en Twitter
  • Compartir en Facebook
Nº de accesos al conjunto de datos: 114

Previsualización

API de datos Código HTML

_id codest paraje municipio dia hora tmin tmax tmed hrmin hrmax hrmed prec radmax radmed vvmed vvmax
1 AL31 Lebor Totana 2019-07-15T00:00:00 02:00 19.3 23.1 20.8 77.5 85.1 81.8 0 0.0 0.0 0.2 1.1
2 AL41 La Calavera Alhama 2019-07-15T00:00:00 03:00 19.4 24.5 22.6 66.9 81.0 74.9 0 0.0 0.0 0.9 3.6
3 AL52 Los Palomos Librilla 2019-07-15T00:00:00 02:00 21.4 23.6 22.3 78.5 86.2 82.8 0 0.0 0.0 0.1 0.9
4 AL91 Leiva Mazarrón 2019-07-15T00:00:00 03:00 20.8 24.1 23.0 92.7 99.9 98.8 0 0.0 0.0 1.7 4.2
5 CA21 Corvera Murcia 2019-07-15T00:00:00 02:00 20.9 22.3 21.5 78.3 87.2 82.7 0 0.0 0.0 1.0 1.8
6 CA42 Balsapintada Fuente Alamo 2019-07-15T00:00:00 02:00 20.3 23.2 22.1 96.8 99.9 99.4 0 0.0 0.0 0.3 1.4
7 CA52 La Aljorra Cartagena 2019-07-15T00:00:00 02:00 22.2 23.2 22.7 84.2 90.9 87.5 0 0.0 0.0 1.3 2.7
8 CA73 Los Belones Cartagena 2019-07-15T00:00:00 03:00 20.8 22.9 21.8 84.2 91.7 88.8 0 0.0 0.0 0.3 1.7
9 CA91 Campillo Abajo Fuente Alamo 2019-07-15T00:00:00 03:00 20.1 23.5 21.7 70.9 86.2 82.1 0 0.0 0.0 0.1 1.6
10 CI32 Estación Ulea Ulea 2019-07-15T00:00:00 02:00 21.0 23.4 22.5 87.4 93.7 91.9 0 0.0 0.0 0.7 2.2
11 CI42 La Carrichosa Cieza 2019-07-15T00:00:00 03:00 20.4 25.0 22.4 67.1 93.9 83.4 0 0.3 0.1 0.1 2.5
12 CI52 Rotas Calasparra 2019-07-15T00:00:00 03:00 20.1 25.4 22.8 50.7 74.1 61.9 0 0.0 0.0 0.1 1.3
13 CI71 Llano de las olivericas Calasparra 2019-07-15T00:00:00 03:00 21.6 24.4 22.9 64.6 99.5 80.9 0 0.0 0.0 0.5 2.0
14 CR12 Barranda Caravaca 2019-07-15T00:00:00 03:00 19.4 21.9 20.8 45.1 51.1 47.7 0 0.0 0.0 0.5 2.3
15 CR42 Venta Ulea Moratalla 2019-07-15T00:00:00 02:00 18.6 22.3 20.3 60.4 69.3 65.0 0 0.0 0.0 1.1 2.5
16 CR52 La Torrecica Cehegin 2019-07-15T00:00:00 03:00 19.5 21.6 20.5 63.5 73.8 70.1 0 0.0 0.0 0.1 1.7
17 JU42 Las Moratillas Yecla 2019-07-15T00:00:00 02:00 16.9 19.7 18.1 64.8 73.4 70.1 0 0.0 0.0 0.1 0.7
18 JU71 Las Encebras Jumilla 2019-07-15T00:00:00 03:00 19.3 24.8 21.4 49.7 79.1 69.0 0 0.0 0.0 0.6 2.6
19 JU81 Roman Jumilla 2019-07-15T00:00:00 03:00 20.4 24.1 22.4 57.0 82.3 73.2 0 0.0 0.0 0.4 3.0
20 LO11 Purias Lorca 2019-07-15T00:00:00 02:00 20.5 24.2 22.0 50.5 75.1 61.4 0 0.0 0.0 0.6 2.2
21 LO21 Pozohiguera Lorca 2019-07-15T00:00:00 02:00 20.0 21.7 20.8 47.7 68.6 58.6 0 0.0 0.0 1.2 2.1
22 LO31 La Pilica Aguilas 2019-07-15T00:00:00 02:00 22.6 23.4 23.0 85.5 88.6 86.8 0 0.0 0.0 0.6 1.8
23 LO41 La Paca Lorca 2019-07-15T00:00:00 02:00 19.6 20.4 20.1 47.1 51.7 48.3 0 0.0 0.0 1.5 2.8
24 LO51 Tebar Aguilas 2019-07-15T00:00:00 03:00 22.7 26.2 25.2 32.4 48.4 37.1 0 0.3 0.0 0.7 2.8
25 LO61 El Esparragal Puerto Lumbreras 2019-07-15T00:00:00 03:00 21.5 24.6 22.8 47.9 78.6 67.1 0 0.0 0.0 1.1 3.2
26 ML21 Mula Mula 2019-07-15T00:00:00 03:00 19.5 23.9 21.3 68.9 77.9 75.1 0 0.0 0.0 0.4 1.5
27 MO12 Pilica Torres de Cotillas 2019-07-15T00:00:00 02:00 21.5 23.3 22.4 84.8 93.8 89.2 0 0.0 0.0 0.4 1.2
28 MO22 Campotejar Molina Segura 2019-07-15T00:00:00 03:00 22.2 24.1 23.0 78.1 84.1 81.9 0 0.0 0.0 0.4 3.2
29 MO51 Charco Taray Fortuna 2019-07-15T00:00:00 02:00 21.4 23.3 22.4 91.3 97.1 94.5 0 0.0 0.0 0.1 0.9
30 MO62 Loma del Aire Ojós 2019-07-15T00:00:00 03:00 22.3 24.6 23.5 80.2 91.0 86.5 0 0.0 0.0 0.1 1.1
31 MU21 Los Alamos Beniel 2019-07-15T00:00:00 02:00 20.6 23.4 21.8 85.0 90.8 88.4 0 0.0 0.0 0.0 0.5
32 MU31 La Vereda Murcia 2019-07-15T00:00:00 03:00 22.4 25.0 23.4 75.3 87.0 81.8 0 0.0 0.0 0.1 1.3
33 MU52 Cabezo Plata Murcia 2019-07-15T00:00:00 03:00 22.7 24.6 23.4 86.6 91.0 89.0 0 0.0 0.0 0.4 2.1
34 MU62 La Alberca Murcia 2019-07-15T00:00:00 03:00 23.4 25.6 24.3 60.6 72.9 68.3 0 0.0 0.0 0.3 1.8
35 TP22 Santiago de la Ribera San Javier 2019-07-15T00:00:00 03:00 21.8 24.2 22.8 78.0 85.5 81.9 0 0.0 0.0 0.2 1.5
36 TP52 El Mirador San Javier 2019-07-15T00:00:00 03:00 21.4 23.6 22.3 86.8 91.0 89.3 0 0.0 0.0 0.5 2.1

Propiedades del conjunto de datos

Título
Informe meteorológico de datos medios para el día en curso
Descripción

Información sobre los datos meteorológicos del día en curso. Se incluye la información por cada una de las estaciones meteorológicas de la red SIAM gestionada por el Instituto Murciano de Investigación y Desarrollo Agrario y Alimentario (IMIDA). Los datos recogidos por las estaciones son validados al día siguiente de la toma de datos.

Categoría
Palabra clave / etiqueta
Publicador
Cobertura geográfica
Región de Murcia
Idioma
Español
Fecha de primera publicación
15/05/2018
Fecha de última modificación
15/07/2019
Licencia
Frecuencia de actualización
Horaria (cada hora)
Diccionario de datos
La información se estructura en las siguientes columnas: Código de estación meteorológica, Nombre del paraje donde está ubicada la estación, Municipio donde está ubicada la estación, día de toma de datos, hora de toma de datos, Temperatura mínima (ºC), Temperatura máxima (ºC), Temperatura media (ºC), Humedad Relativa mínima (%), Humedad Relativa máxima (%),Humedad Relativa media (%),Precipitación (mm), radiación máxima (w/m2), radiación media (w/m2), Velocidad del Viento media (m/seg), Velocidad del Viento máxima (m/seg), Evapotranspiración máxima de un día (mm).

Metadatos

Recursos

comments powered by Disqus